Hermitage, TN (37076)

5:34 PM CST on February 06, 2016 (GMT -0600)
Hermitage | | Change Station
CLOSE
Current Station
Personal Weather Station
Location: Nashville, TN
Elevation: 528 ft
Nearby Weather Stations

Elev 528 ft 36.18 °N, 86.63 °W | Updated 45 seconds ago

Mostly Cloudy
Mostly Cloudy
47.7 °F
Feels Like 48 °F
N
0.0
Wind Variable Wind from SE
Gusts 0.0 mph

Today
High -- | Low -- °F
--% Chance of Precip.
Yesterday
High -- | Low -- °F
Precip. -- in
Pressure 30.30 in
Visibility 10.0 miles
Clouds Mostly Cloudy 15000 ft
Mostly Cloudy 25000 ft
Windchill 48 °F
Dew Point 19 °F
Humidity 32%
Rainfall 0.00 in
Snow Depth Not available.
6:43 AM 5:17 PM
Waning Crescent, 4% visible
METAR KBNA 062253Z 00000KT 10SM BKN150 BKN250 10/M09 A3029 RMK AO2 SLP261 T01001089
Pressure 30.30 in
Visibility 10.0 miles
Clouds Mostly Cloudy 15000 ft
Mostly Cloudy 25000 ft
Windchill 48 °F
Dew Point 19 °F
Humidity 32%
Rainfall 0.00 in
Snow Depth Not available.
6:43 AM 5:17 PM
Waning Crescent, 4% visible
METAR KBNA 062253Z 00000KT 10SM BKN150 BKN250 10/M09 A3029 RMK AO2 SLP261 T01001089

10-Day Weather Forecast

Almanac

Astronomy

Feb. 06, 2016 Rise Set
Actual Time
Civil Twilight
Nautical Twilight
Astronomical Twilight
Moon
Length of Visible Light
Length of Day
Tomorrow will be .
, % of the Moon is Illuminated

Today's Extremes

State Highs State Lows

Community

WunderPhotos

Upload Photos

1,891,098 photos uploaded!

WunderBlog® & News

Nearby

Air Quality

  Air Quality AQ Index Pollutant
Not available.

Snow Depth

Station Depth Elevation

Earthquake Activity

City Distance Mag. Time & Date
Minimum magnitude displayed is 2.5.

Coastal Water Temperatures

Place Temperature

Stations

Nearby Weather Stations

Station Location Temp. Windchill Dew Point Humidity Wind Precip. Elev Updated Type
                   

Watches & Warnings

There are currently no watches in effect.